Time;durP1;ratioP1;P1;durP2;ratioP2;P2;SDS_P1;SDS_P2;PMS_P1;PMS_P2;Temp;Humidity;BMP_temperature;BMP_pressure;BME280_temperature;BME280_humidity;BME280_pressure;Samples;Min_cycle;Max_cycle;Signal;HPM_P1;HPM_P2
2021/12/09 00:01:53;;;;;;;13.30;5.63;;;-12.10;54.20;;;-13.07;97.59;99429.16;4996918;28;121860;-76
2021/12/09 00:04:30;;;;;;;15.45;7.78;;;-12.00;55.50;;;-12.99;98.10;99435.38;5002160;28;129859;-76
2021/12/09 00:07:01;;;;;;;13.23;6.45;;;-11.90;57.80;;;-12.93;98.16;99434.72;4984817;28;129097;-75
2021/12/09 00:09:31;;;;;;;16.02;6.07;;;-11.90;58.50;;;-12.99;98.57;99432.75;5002328;28;119929;-76
2021/12/09 00:12:00;;;;;;;15.98;6.60;;;-11.90;59.90;;;-13.07;99.40;99434.38;4996032;28;119151;-76
2021/12/09 00:14:35;;;;;;;13.38;7.28;;;-11.90;62.40;;;-12.91;99.57;99424.94;4997011;28;130034;-76
2021/12/09 00:17:08;;;;;;;12.48;6.65;;;-11.90;64.10;;;-12.81;99.96;99428.22;5005907;28;129152;-79
2021/12/09 00:19:39;;;;;;;14.10;6.45;;;-11.80;66.50;;;-12.89;100.00;99420.38;4993038;28;119923;-79
2021/12/09 00:22:11;;;;;;;16.30;7.30;;;-11.80;68.50;;;-12.70;100.00;99414.84;5002051;28;118922;-78
2021/12/09 00:24:40;;;;;;;12.75;6.97;;;-11.70;70.30;;;-12.78;100.00;99417.44;4986665;28;128659;-79
2021/12/09 00:27:09;;;;;;;15.10;7.10;;;-11.70;72.40;;;-12.82;100.00;99418.75;4992630;28;129825;-79
2021/12/09 00:29:38;;;;;;;18.02;7.07;;;-11.70;73.30;;;-12.61;100.00;99413.03;4987252;28;119708;-78
2021/12/09 00:32:08;;;;;;;15.38;7.35;;;-11.60;74.70;;;-12.64;100.00;99417.78;5003480;28;119601;-78
2021/12/09 00:34:41;;;;;;;17.30;7.30;;;-11.60;76.50;;;-12.60;100.00;99419.91;4988289;28;130733;-78
2021/12/09 00:37:19;;;;;;;17.38;7.40;;;-11.60;78.50;;;-12.70;100.00;99412.22;4990354;28;128813;-78
2021/12/09 00:39:50;;;;;;;17.23;7.70;;;-11.50;79.30;;;-12.63;100.00;99403.69;5004126;28;119532;-78
2021/12/09 00:42:19;;;;;;;17.60;7.78;;;-11.50;79.40;;;-12.45;100.00;99406.97;4998454;28;119230;-79
2021/12/09 00:44:49;;;;;;;17.13;7.25;;;-11.40;80.30;;;-12.44;100.00;99402.56;4996548;28;129921;-79
2021/12/09 00:47:18;;;;;;;21.02;7.72;;;-11.40;79.70;;;-12.48;100.00;99407.28;5000930;28;129994;-78
2021/12/09 00:49:47;;;;;;;16.75;7.32;;;-11.40;81.40;;;-12.61;100.00;99397.34;5015770;28;121888;-79
2021/12/09 00:52:22;;;;;;;19.05;7.63;;;-11.40;81.70;;;-12.34;100.00;99404.03;4988183;28;122236;-79
2021/12/09 00:54:50;;;;;;;15.77;7.15;;;-11.40;82.40;;;-12.32;100.00;99402.06;4984814;28;130308;-78
2021/12/09 00:57:20;;;;;;;18.48;7.28;;;-11.30;82.40;;;-12.48;100.00;99404.69;4991100;28;129588;-79
2021/12/09 00:59:49;;;;;;;18.38;7.60;;;-11.40;82.10;;;-12.41;100.00;99387.34;4989265;28;120320;-78
2021/12/09 01:02:19;;;;;;;19.60;8.07;;;-11.30;83.00;;;-12.28;100.00;99378.19;4995576;28;119556;-79
2021/12/09 01:04:49;;;;;;;20.15;6.60;;;-11.30;83.00;;;-12.36;100.00;99387.66;4988227;28;129580;-76
2021/12/09 01:07:18;;;;;;;15.27;6.75;;;-11.20;82.80;;;-12.32;100.00;99383.75;4989494;28;129024;-77
2021/12/09 01:09:48;;;;;;;14.90;7.63;;;-11.20;82.50;;;-12.01;100.00;99392.66;5002285;28;119464;-78
2021/12/09 01:12:17;;;;;;;16.25;7.78;;;-11.20;82.60;;;-11.93;100.00;99393.47;5003409;28;120251;-78
2021/12/09 01:14:46;;;;;;;19.40;7.75;;;-11.10;82.30;;;-12.00;100.00;99392.50;4995327;28;129639;-77
2021/12/09 01:17:34;;;;;;;22.00;8.18;;;-11.10;81.70;;;-12.10;100.00;99389.28;5001606;28;130802;-78
2021/12/09 01:20:04;;;;;;;13.85;6.47;;;-11.10;81.60;;;-11.91;100.00;99382.81;4993912;28;119560;-77
2021/12/09 01:22:37;;;;;;;15.52;8.00;;;-11.10;81.30;;;-11.92;100.00;99378.56;4992683;28;119345;-79
2021/12/09 01:25:10;;;;;;;17.65;7.88;;;-11.00;81.10;;;-12.02;100.00;99381.38;5000007;28;130813;-79
2021/12/09 01:27:42;;;;;;;17.27;8.27;;;-11.10;81.20;;;-11.91;100.00;99379.38;5000853;28;128874;-77
2021/12/09 01:30:16;;;;;;;17.85;7.60;;;-11.00;81.40;;;-12.08;100.00;99371.59;4998884;28;119348;-77
2021/12/09 01:32:51;;;;;;;14.93;7.20;;;-11.00;81.00;;;-11.96;100.00;99369.44;4993903;28;118498;-78
2021/12/09 01:35:21;;;;;;;16.75;7.82;;;-11.00;81.00;;;-12.16;100.00;99363.78;4992429;28;129987;-78
2021/12/09 01:37:54;;;;;;;18.15;7.63;;;-11.00;80.80;;;-12.23;100.00;99357.56;4987597;28;128844;-77
2021/12/09 01:40:29;;;;;;;17.10;7.55;;;-11.10;81.10;;;-12.22;100.00;99353.97;4994995;28;102737;-77
2021/12/09 01:42:59;;;;;;;17.75;7.50;;;-11.10;80.60;;;-12.16;100.00;99358.53;4997623;28;122129;-77
2021/12/09 01:45:29;;;;;;;20.45;7.70;;;-11.00;80.40;;;-12.04;100.00;99357.19;5001793;28;130055;-78
2021/12/09 01:47:58;;;;;;;16.83;7.90;;;-11.00;80.50;;;-11.86;100.00;99351.69;4995988;28;129414;-78
2021/12/09 01:50:28;;;;;;;15.93;7.75;;;-11.00;81.00;;;-11.89;100.00;99359.06;5001391;28;118680;-79
2021/12/09 01:52:57;;;;;;;17.13;7.15;;;-10.90;81.30;;;-11.70;100.00;99360.47;4996082;28;119471;-78
2021/12/09 01:55:27;;;;;;;17.35;8.10;;;-10.80;81.70;;;-11.59;100.00;99352.25;4999799;28;130452;-79
2021/12/09 01:57:56;;;;;;;18.25;7.55;;;-10.80;81.80;;;-11.57;100.00;99348.44;4989470;28;129473;-77
2021/12/09 02:00:29;;;;;;;16.55;7.63;;;-10.70;81.60;;;-11.32;100.00;99340.47;5000027;28;119704;-79
2021/12/09 02:02:58;;;;;;;18.67;8.15;;;-10.70;82.00;;;-11.38;100.00;99351.63;5012267;28;119439;-78
2021/12/09 02:05:28;;;;;;;16.08;7.20;;;-10.50;82.10;;;-11.40;100.00;99356.22;4976280;28;129013;-79
2021/12/09 02:07:57;;;;;;;19.88;7.72;;;-10.50;82.10;;;-11.23;100.00;99360.38;4999109;28;128686;-79
2021/12/09 02:10:28;;;;;;;17.05;8.35;;;-10.50;82.30;;;-11.22;100.00;99363.81;4993550;28;119602;-79
2021/12/09 02:12:57;;;;;;;16.42;7.15;;;-10.40;82.40;;;-11.21;100.00;99361.00;4984008;28;119184;-79
2021/12/09 02:15:26;;;;;;;17.35;7.60;;;-10.40;82.20;;;-11.19;100.00;99360.03;4992427;28;130481;-79
2021/12/09 02:17:56;;;;;;;16.48;6.95;;;-10.40;82.10;;;-11.22;100.00;99364.63;4991984;28;129814;-78
2021/12/09 02:20:32;;;;;;;14.85;6.85;;;-10.30;82.20;;;-11.12;99.90;99366.22;4999546;28;119651;-79
2021/12/09 02:23:07;;;;;;;13.40;6.97;;;-10.30;81.80;;;-11.09;99.70;99371.91;5024074;28;118605;-79
2021/12/09 02:25:44;;;;;;;16.80;7.78;;;-10.30;82.20;;;-11.08;99.35;99372.72;5021102;28;129967;-79
2021/12/09 02:28:14;;;;;;;15.48;6.35;;;-10.20;81.00;;;-11.15;99.36;99366.56;5002545;28;129760;-79
2021/12/09 02:30:44;;;;;;;15.32;6.35;;;-10.20;80.40;;;-11.28;98.93;99377.59;4993130;28;121984;-78
2021/12/09 02:33:19;;;;;;;12.07;6.50;;;-10.30;78.30;;;-11.32;98.65;99371.91;5005780;28;122343;-78
2021/12/09 02:35:49;;;;;;;11.00;5.68;;;-10.40;77.00;;;-11.30;98.46;99383.00;5016333;28;128652;-78
2021/12/09 02:38:18;;;;;;;14.27;6.93;;;-10.40;76.40;;;-11.30;98.35;99384.81;5027954;28;128019;-78
2021/12/09 02:40:48;;;;;;;15.98;7.63;;;-10.40;75.60;;;-11.27;97.80;99390.53;5027526;28;119379;-78
2021/12/09 02:43:26;;;;;;;14.07;6.50;;;-10.30;73.70;;;-11.35;97.38;99385.34;5008132;28;119176;-77
2021/12/09 02:45:55;;;;;;;14.38;6.53;;;-10.50;73.40;;;-11.33;97.74;99383.34;4993013;28;129847;-78
2021/12/09 02:48:27;;;;;;;13.73;6.32;;;-10.40;73.50;;;-11.36;97.28;99383.69;4990069;28;128560;-78
2021/12/09 02:50:57;;;;;;;13.77;6.50;;;-10.50;72.30;;;-11.32;96.71;99382.38;5005374;28;119837;-78
2021/12/09 02:53:27;;;;;;;12.57;6.53;;;-10.60;71.50;;;-11.48;96.60;99390.31;4994688;28;119133;-78
2021/12/09 02:55:56;;;;;;;14.40;7.25;;;-10.60;70.10;;;-11.51;96.36;99385.41;4992825;28;129159;-78
2021/12/09 02:58:25;;;;;;;14.23;6.70;;;-10.60;68.70;;;-11.53;96.47;99384.78;4997302;28;129616;-78
2021/12/09 03:01:04;;;;;;;15.68;6.57;;;-10.60;68.70;;;-11.53;96.00;99384.78;5006301;28;119622;-78
2021/12/09 03:03:33;;;;;;;11.00;5.95;;;-10.60;68.10;;;-11.66;96.77;99378.28;4997567;28;119432;-79
2021/12/09 03:06:04;;;;;;;14.73;7.22;;;-10.70;67.30;;;-11.67;96.60;99376.66;4999764;28;129512;-79
2021/12/09 03:08:36;;;;;;;15.25;7.22;;;-10.70;67.40;;;-11.65;97.01;99372.06;4998986;28;129628;-79
2021/12/09 03:11:07;;;;;;;15.02;6.47;;;-10.70;66.10;;;-11.52;96.84;99381.19;4983469;28;119104;-78
2021/12/09 03:13:38;;;;;;;15.13;7.35;;;-10.70;66.60;;;-11.70;96.18;99379.63;5001389;28;119199;-78
2021/12/09 03:16:15;;;;;;;22.92;8.13;;;-10.70;65.00;;;-11.59;96.61;99391.53;4988442;28;128964;-78
2021/12/09 03:18:49;;;;;;;17.40;7.50;;;-10.70;65.10;;;-11.61;96.35;99383.00;4996715;28;129458;-78
2021/12/09 03:21:22;;;;;;;16.10;7.03;;;-10.70;64.60;;;-11.28;95.65;99393.31;4994950;28;122055;-78
2021/12/09 03:23:52;;;;;;;16.90;6.95;;;-10.70;64.50;;;-11.21;95.12;99399.50;4996340;28;122017;-79
2021/12/09 03:26:28;;;;;;;14.50;6.40;;;-10.50;65.40;;;-11.27;95.50;99398.38;4996624;28;130453;-78
2021/12/09 03:28:58;;;;;;;18.38;7.60;;;-10.50;65.10;;;-11.08;95.40;99399.78;4996856;28;130000;-78
2021/12/09 03:31:29;;;;;;;12.95;6.25;;;-10.50;65.50;;;-11.14;95.44;99399.63;5002902;28;119678;-78
2021/12/09 03:33:58;;;;;;;13.93;6.70;;;-10.40;65.20;;;-11.02;94.83;99403.47;4990665;28;119488;-78
2021/12/09 03:36:28;;;;;;;16.48;7.10;;;-10.40;65.00;;;-10.96;94.68;99394.94;4993610;28;130136;-77
2021/12/09 03:38:58;;;;;;;15.88;6.72;;;-10.40;65.50;;;-10.89;94.00;99402.91;5000938;28;128577;-78
2021/12/09 03:41:33;;;;;;;15.10;6.47;;;-10.40;65.60;;;-10.90;94.55;99402.09;4987686;28;119904;-78
2021/12/09 03:44:02;;;;;;;15.48;6.40;;;-10.40;65.30;;;-10.87;93.89;99400.94;4991877;28;119306;-77
2021/12/09 03:46:31;;;;;;;16.23;6.80;;;-10.30;65.20;;;-11.07;94.17;99408.44;4987789;28;129835;-77
2021/12/09 03:49:00;;;;;;;13.15;6.78;;;-10.30;64.00;;;-11.00;94.73;99401.50;5004553;28;130487;-77
2021/12/09 03:51:30;;;;;;;15.82;6.65;;;-10.40;63.90;;;-10.81;94.18;99409.91;5003563;28;118701;-78
2021/12/09 03:53:59;;;;;;;13.63;7.03;;;-10.30;64.60;;;-10.86;94.10;99403.38;4993007;28;120041;-77
2021/12/09 03:56:28;;;;;;;14.18;7.03;;;-10.30;64.50;;;-10.77;94.24;99400.69;5002037;28;130058;-78
2021/12/09 03:58:57;;;;;;;14.68;7.13;;;-10.20;66.00;;;-10.82;94.07;99403.84;5005002;28;129924;-78
2021/12/09 04:01:26;;;;;;;18.15;7.32;;;-10.20;64.50;;;-10.96;94.60;99397.53;4995523;28;120010;-77
2021/12/09 04:03:55;;;;;;;12.32;7.55;;;-10.20;63.30;;;-10.97;95.21;99400.34;5002736;28;119546;-79
2021/12/09 04:06:25;;;;;;;14.65;6.18;;;-10.20;62.40;;;-11.01;95.33;99394.66;4994270;28;129832;-79
2021/12/09 04:08:54;;;;;;;15.20;8.43;;;-10.20;62.50;;;-10.63;94.72;99399.13;4999583;28;129116;-78
2021/12/09 04:11:23;;;;;;;15.88;7.10;;;-10.10;62.20;;;-10.80;94.96;99399.22;4999756;28;122238;-79
2021/12/09 04:13:52;;;;;;;17.67;7.25;;;-10.10;61.30;;;-10.96;95.52;99407.22;4997851;28;121783;-79
2021/12/09 04:16:20;;;;;;;15.85;6.75;;;-10.00;61.00;;;-10.72;95.30;99393.13;4996576;28;129559;-79
2021/12/09 04:18:49;;;;;;;14.05;6.28;;;-10.00;60.60;;;-10.81;95.51;99399.41;4984542;28;128840;-78
2021/12/09 04:21:27;;;;;;;10.98;6.07;;;-10.00;59.40;;;-10.63;95.27;99402.56;5001371;28;119483;-78
2021/12/09 04:23:57;;;;;;;13.13;6.32;;;-9.90;60.20;;;-10.54;94.78;99403.31;4997722;28;119356;-78
2021/12/09 04:26:26;;;;;;;13.38;6.65;;;-9.80;60.20;;;-10.59;95.68;99403.03;4988024;28;129245;-78
2021/12/09 04:28:55;;;;;;;11.43;5.85;;;-9.80;59.80;;;-10.70;95.37;99407.69;4991183;28;129796;-78
2021/12/09 04:31:24;;;;;;;13.90;6.80;;;-9.80;58.70;;;-10.75;95.77;99406.56;4988298;28;118490;-78
2021/12/09 04:33:53;;;;;;;13.00;6.53;;;-9.80;57.90;;;-10.76;96.17;99412.84;4992805;28;120102;-78
2021/12/09 04:36:23;;;;;;;11.50;6.57;;;-9.80;57.70;;;-10.64;96.15;99406.19;5002672;28;130725;-78
2021/12/09 04:38:52;;;;;;;11.73;5.75;;;-9.80;58.20;;;-10.79;96.44;99413.19;4999976;28;130274;-79
2021/12/09 04:41:24;;;;;;;17.55;7.15;;;-9.70;57.50;;;-10.73;96.28;99399.38;4999780;28;119550;-79
2021/12/09 04:43:53;;;;;;;13.70;6.40;;;-9.80;57.50;;;-10.56;96.77;99407.94;4992932;28;118903;-79
2021/12/09 04:46:21;;;;;;;13.95;6.93;;;-9.70;58.60;;;-10.62;96.78;99406.00;4992872;28;129946;-78
2021/12/09 04:48:50;;;;;;;12.57;6.38;;;-9.70;58.70;;;-10.59;96.36;99409.09;5005230;28;128846;-78
2021/12/09 04:51:22;;;;;;;17.23;6.75;;;-9.70;57.80;;;-10.62;96.76;99409.44;5002336;28;119560;-78
2021/12/09 04:53:51;;;;;;;13.02;6.60;;;-9.70;57.70;;;-10.61;95.91;99407.63;4993035;28;120194;-78
2021/12/09 04:56:20;;;;;;;12.05;6.10;;;-9.70;56.90;;;-10.45;96.05;99409.28;5001854;27;130567;-77
2021/12/09 04:58:53;;;;;;;13.27;6.82;;;-9.60;57.70;;;-10.44;95.92;99408.31;5008997;28;129606;-78
2021/12/09 05:01:22;;;;;;;13.43;6.97;;;-9.60;57.90;;;-10.04;95.89;99406.25;5015571;28;122361;-78
2021/12/09 05:03:51;;;;;;;12.55;6.68;;;-9.50;59.10;;;-9.99;95.45;99409.97;5017032;28;121831;-79
2021/12/09 05:06:22;;;;;;;14.27;7.07;;;-9.40;59.50;;;-9.74;95.14;99406.25;5022686;28;130158;-80
2021/12/09 05:08:51;;;;;;;12.52;7.20;;;-9.30;60.50;;;-9.85;94.03;99410.97;5005016;28;130024;-80
2021/12/09 05:11:47;;;;;;;15.02;6.78;;;-9.20;60.10;;;-9.72;93.98;99405.09;5011876;28;120023;-78
2021/12/09 05:14:19;;;;;;;14.43;7.32;;;-9.20;60.30;;;-9.83;94.90;99414.25;5015009;28;119396;-79
2021/12/09 05:16:53;;;;;;;17.30;7.65;;;-9.10;60.40;;;-9.88;95.25;99413.94;5016516;28;130487;-79
2021/12/09 05:19:22;;;;;;;17.85;8.27;;;-9.10;59.20;;;-10.13;95.95;99418.66;5016795;28;129757;-79
2021/12/09 05:21:53;;;;;;;16.95;8.18;;;-9.20;56.80;;;-9.86;95.99;99416.41;5011183;28;119417;-79
2021/12/09 05:24:22;;;;;;;16.08;7.22;;;-9.10;58.90;;;-9.75;95.64;99415.97;5038659;27;119095;-79
2021/12/09 05:26:53;;;;;;;16.67;7.60;;;-9.00;59.40;;;-9.54;95.22;99417.03;5015745;28;129759;-80
2021/12/09 05:29:30;;;;;;;13.45;6.78;;;-8.90;60.60;;;-9.63;96.27;99418.94;5016936;28;129366;-79
2021/12/09 05:32:10;;;;;;;16.85;8.18;;;-8.90;62.30;;;-9.47;97.11;99417.91;5018018;28;119354;-80
2021/12/09 05:34:42;;;;;;;16.55;8.45;;;-8.70;64.40;;;-9.47;97.50;99408.25;5013759;28;119234;-79
2021/12/09 05:37:15;;;;;;;13.45;7.18;;;-8.60;64.40;;;-9.28;97.07;99413.94;5022784;28;130450;-79
2021/12/09 05:39:45;;;;;;;13.73;7.82;;;-8.60;63.10;;;-9.15;96.41;99415.88;5023773;28;131670;-79
2021/12/09 05:42:16;;;;;;;17.00;8.60;;;-8.50;63.30;;;-9.08;96.17;99417.59;5029101;28;121764;-79
2021/12/09 05:44:47;;;;;;;15.40;7.78;;;-8.50;63.10;;;-8.91;95.73;99418.19;5027814;28;119233;-79
2021/12/09 05:47:17;;;;;;;19.55;8.43;;;-8.40;63.30;;;-8.89;95.27;99418.78;5009782;28;129745;-77
2021/12/09 05:49:49;;;;;;;14.30;7.72;;;-8.30;63.00;;;-8.77;94.07;99423.56;5023100;28;129526;-79
2021/12/09 05:52:18;;;;;;;16.92;8.88;;;-8.40;62.90;;;-8.81;94.49;99425.75;5019521;28;122409;-77
2021/12/09 05:54:49;;;;;;;16.48;8.02;;;-8.40;61.90;;;-9.07;95.06;99429.75;5028540;27;121602;-79
2021/12/09 05:57:18;;;;;;;16.95;8.73;;;-8.50;60.00;;;-9.04;95.03;99423.28;5059593;27;130637;-80
2021/12/09 05:59:48;;;;;;;16.58;8.95;;;-8.50;60.20;;;-9.39;94.67;99430.97;5046704;28;128884;-75
2021/12/09 06:02:19;;;;;;;13.98;7.35;;;-8.60;56.50;;;-9.24;95.51;99436.19;5028579;27;119243;-76
2021/12/09 06:04:47;;;;;;;14.55;7.50;;;-8.70;58.30;;;-8.99;94.47;99431.44;5008447;28;119514;-76
2021/12/09 06:07:17;;;;;;;17.52;8.45;;;-8.60;58.90;;;-9.13;94.59;99438.38;5019837;28;130020;-77
2021/12/09 06:09:47;;;;;;;13.95;7.88;;;-8.60;57.80;;;-9.48;95.48;99437.34;5029514;27;130431;-78
2021/12/09 06:12:16;;;;;;;14.40;7.65;;;-8.70;57.70;;;-9.70;94.86;99439.06;5023368;27;119298;-78
2021/12/09 06:14:45;;;;;;;17.02;7.72;;;-8.90;54.30;;;-9.93;96.05;99439.94;5020430;28;118945;-78
2021/12/09 06:17:15;;;;;;;15.55;9.15;;;-9.00;54.20;;;-9.77;96.22;99438.97;5023636;28;130153;-78
2021/12/09 06:19:47;;;;;;;16.30;8.10;;;-9.00;55.60;;;-9.60;95.89;99447.47;5021426;28;129695;-79
2021/12/09 06:22:16;;;;;;;14.75;7.18;;;-9.00;56.70;;;-9.85;95.18;99458.25;5014146;28;119574;-79
2021/12/09 06:24:47;;;;;;;14.65;7.30;;;-9.00;54.80;;;-9.83;95.82;99452.81;5023533;27;119333;-77
2021/12/09 06:27:16;;;;;;;16.60;8.05;;;-9.00;55.50;;;-9.53;95.71;99451.03;5022019;28;130095;-79
2021/12/09 06:29:45;;;;;;;17.63;8.20;;;-8.90;57.50;;;-9.52;95.59;99457.91;5016834;28;129592;-77
2021/12/09 06:32:15;;;;;;;16.13;8.00;;;-8.80;58.00;;;-9.44;95.39;99460.44;5021226;28;119736;-77
2021/12/09 06:34:44;;;;;;;19.17;8.25;;;-8.80;57.50;;;-9.42;94.16;99453.19;5011435;28;119575;-78
2021/12/09 06:37:13;;;;;;;18.00;9.35;;;-8.70;55.60;;;-9.52;93.97;99451.81;5017236;28;130031;-78
2021/12/09 06:39:42;;;;;;;16.00;8.55;;;-8.80;52.40;;;-9.20;93.83;99455.06;5019079;28;129337;-77
2021/12/09 06:42:11;;;;;;;20.38;8.75;;;-8.70;54.70;;;-9.14;93.35;99455.13;5015111;28;121973;-77
2021/12/09 06:44:40;;;;;;;15.98;8.10;;;-8.60;53.00;;;-9.17;92.40;99447.63;5015224;28;122090;-78
2021/12/09 06:47:08;;;;;;;17.90;7.85;;;-8.70;50.20;;;-8.92;90.85;99444.66;5006730;28;130411;-77
2021/12/09 06:49:39;;;;;;;17.35;8.10;;;-8.50;50.30;;;-9.11;90.82;99446.88;5016053;28;129271;-78
2021/12/09 06:52:07;;;;;;;16.73;8.32;;;-8.60;46.50;;;-8.91;90.57;99448.91;5008884;28;119637;-78
2021/12/09 06:54:36;;;;;;;18.30;8.63;;;-8.60;47.50;;;-9.17;90.75;99445.00;5010703;28;120400;-77
2021/12/09 06:57:05;;;;;;;16.85;8.68;;;-8.60;45.50;;;-9.34;91.96;99448.84;5024081;28;129935;-77
2021/12/09 06:59:34;;;;;;;16.20;7.40;;;-8.60;45.80;;;-9.25;92.51;99447.72;5015417;28;128722;-77
2021/12/09 07:02:03;;;;;;;21.05;8.98;;;-8.60;46.90;;;-8.96;91.66;99451.28;5016084;28;119329;-78
2021/12/09 07:04:32;;;;;;;23.67;11.10;;;-8.50;47.90;;;-8.93;91.38;99454.34;5017395;28;119629;-79
2021/12/09 07:07:02;;;;;;;14.32;8.10;;;-8.50;46.90;;;-8.85;90.51;99445.53;5011021;28;130052;-78
2021/12/09 07:09:31;;;;;;;18.55;8.70;;;-8.50;45.80;;;-8.62;90.31;99452.44;5023660;28;129800;-79
2021/12/09 07:12:00;;;;;;;15.98;8.07;;;-8.40;46.20;;;-8.73;90.32;99461.66;5021929;28;118608;-79
2021/12/09 07:14:29;;;;;;;19.65;8.98;;;-8.40;45.40;;;-9.00;90.75;99450.84;5022786;28;119597;-79
2021/12/09 07:16:58;;;;;;;17.92;8.52;;;-8.40;43.60;;;-9.10;91.56;99451.16;5016614;28;129896;-78
2021/12/09 07:19:27;;;;;;;14.57;7.55;;;-8.50;44.00;;;-8.64;90.66;99455.25;5015198;27;130292;-79
2021/12/09 07:21:55;;;;;;;17.40;9.05;;;-8.40;45.60;;;-8.99;90.67;99456.91;5023026;28;119558;-77
2021/12/09 07:24:25;;;;;;;15.82;7.85;;;-8.50;42.80;;;-8.64;91.09;99463.16;5021719;28;119042;-78
2021/12/09 07:26:54;;;;;;;17.25;8.35;;;-8.40;46.00;;;-8.52;89.17;99468.75;5021168;28;129267;-78
2021/12/09 07:29:23;;;;;;;15.45;7.97;;;-8.30;44.60;;;-8.88;90.21;99467.78;5021799;28;129761;-80
2021/12/09 07:31:51;;;;;;;18.98;10.18;;;-8.40;43.20;;;-8.86;90.21;99457.06;5012362;28;122034;-80
2021/12/09 07:34:21;;;;;;;20.17;10.40;;;-8.40;43.10;;;-8.44;89.79;99471.25;5020623;28;122699;-80
2021/12/09 07:36:50;;;;;;;18.08;9.48;;;-8.30;44.70;;;-8.39;89.79;99466.19;5005576;28;128846;-80
2021/12/09 07:39:18;;;;;;;17.70;8.82;;;-8.20;44.30;;;-8.01;88.52;99467.72;5014909;28;128962;-80
2021/12/09 07:41:48;;;;;;;18.50;9.10;;;-8.00;43.60;;;-7.61;86.80;99471.44;5009180;28;118654;-80
2021/12/09 07:44:20;;;;;;;17.88;9.40;;;-7.90;44.80;;;-7.82;86.30;99474.13;5023280;28;119513;-80
2021/12/09 07:46:49;;;;;;;14.93;8.07;;;-7.90;41.00;;;-7.56;85.90;99462.94;5015815;28;129369;-80
2021/12/09 07:49:19;;;;;;;19.27;8.57;;;-7.80;41.50;;;-7.61;85.79;99476.72;5021715;28;129806;-80
2021/12/09 07:51:48;;;;;;;19.40;8.70;;;-7.90;39.40;;;-8.33;86.76;99475.16;5007736;28;119347;-78
2021/12/09 07:54:19;;;;;;;17.20;8.77;;;-8.10;36.70;;;-8.32;88.00;99480.25;5021156;28;119417;-80
2021/12/09 07:56:58;;;;;;;19.77;9.25;;;-8.20;39.90;;;-8.26;87.47;99478.66;5018019;28;129241;-80
2021/12/09 07:59:27;;;;;;;17.60;8.50;;;-8.20;41.00;;;-8.40;87.28;99484.81;5016720;28;129667;-79
2021/12/09 08:01:56;;;;;;;23.35;10.13;;;-8.20;39.70;;;-8.32;87.69;99489.94;5018192;28;120054;-80
2021/12/09 08:04:25;;;;;;;16.75;8.95;;;-8.20;40.20;;;-8.38;88.48;99494.16;5012216;28;119522;-77
2021/12/09 08:06:54;;;;;;;18.92;8.88;;;-8.20;41.70;;;-8.10;87.23;99488.13;5010429;28;130448;-80
2021/12/09 08:09:22;;;;;;;15.25;8.38;;;-8.10;40.20;;;-8.87;88.74;99493.06;5012760;28;129984;-81
2021/12/09 08:11:51;;;;;;;19.20;8.85;;;-8.30;39.50;;;-8.89;90.79;99494.28;5003078;28;119251;-81
2021/12/09 08:14:21;;;;;;;22.13;9.93;;;-8.40;43.00;;;-8.77;90.98;99497.22;4998281;28;119239;-81
2021/12/09 08:17:07;;;;;;;26.55;9.60;;;-8.30;45.30;;;-8.93;91.68;99487.75;5021515;28;130821;-81
2021/12/09 08:19:36;;;;;;;20.52;9.07;;;-8.30;45.20;;;-8.67;90.59;99493.28;5020952;28;130324;-80
2021/12/09 08:22:06;;;;;;;17.25;9.07;;;-8.30;44.50;;;-8.65;91.18;99500.19;5013403;28;122155;-80
2021/12/09 08:24:42;;;;;;;17.80;9.25;;;-8.20;46.20;;;-8.59;90.96;99494.19;5014457;28;121668;-80
2021/12/09 08:27:10;;;;;;;20.17;10.85;;;-8.20;46.20;;;-8.58;90.97;99490.56;5016100;28;129856;-80
2021/12/09 08:29:40;;;;;;;20.25;9.57;;;-8.20;47.10;;;-8.23;89.93;99488.00;5007288;28;129609;-79
2021/12/09 08:32:09;;;;;;;18.10;9.55;;;-8.10;48.00;;;-7.81;88.94;99491.59;5004897;28;118391;-80
2021/12/09 08:34:37;;;;;;;18.00;9.15;;;-7.90;48.80;;;-8.10;88.69;99493.41;5014639;28;119332;-80
2021/12/09 08:37:06;;;;;;;19.02;9.93;;;-7.90;44.30;;;-8.35;90.56;99501.69;5015689;28;130303;-79
2021/12/09 08:39:35;;;;;;;23.83;10.48;;;-8.00;46.40;;;-7.97;89.63;99492.69;5017357;28;129706;-80
2021/12/09 08:42:04;;;;;;;27.13;11.52;;;-7.90;45.80;;;-8.02;89.74;99484.56;5022832;28;120034;-80
2021/12/09 08:44:33;;;;;;;17.42;10.13;;;-7.80;46.40;;;-8.08;90.21;99490.56;5022220;28;118875;-80
2021/12/09 08:47:07;;;;;;;17.95;10.15;;;-7.90;46.40;;;-7.61;88.66;99495.16;5015636;28;128663;-80
2021/12/09 08:49:36;;;;;;;20.27;10.10;;;-7.60;46.60;;;-7.46;87.09;99497.69;5019441;28;130438;-80
2021/12/09 08:52:06;;;;;;;21.00;9.05;;;-7.50;43.70;;;-7.73;88.50;99488.00;5010452;28;119010;-80
2021/12/09 08:54:35;;;;;;;17.17;9.45;;;-7.60;43.90;;;-8.21;89.94;99501.78;5023091;28;118816;-81
2021/12/09 08:57:05;;;;;;;20.52;9.32;;;-7.70;42.70;;;-8.08;90.84;99490.56;5015837;28;130146;-80
2021/12/09 08:59:34;;;;;;;18.45;9.35;;;-7.70;46.60;;;-7.74;89.96;99488.97;5018609;28;129013;-79
2021/12/09 09:02:03;;;;;;;19.40;9.48;;;-7.60;48.10;;;-7.39;88.77;99489.81;5022959;28;119018;-80
2021/12/09 09:04:33;;;;;;;18.33;9.20;;;-7.40;46.50;;;-7.38;87.53;99491.47;5025318;28;118875;-80
2021/12/09 09:07:03;;;;;;;19.25;9.10;;;-7.40;42.60;;;-7.41;88.58;99483.94;5025925;28;128711;-81
2021/12/09 09:09:34;;;;;;;21.67;9.73;;;-7.40;42.60;;;-7.44;87.81;99493.03;5014451;28;128778;-80
2021/12/09 09:12:06;;;;;;;18.38;9.23;;;-7.40;42.50;;;-6.96;87.35;99489.63;5019159;28;122552;-80
2021/12/09 09:14:35;;;;;;;21.83;10.70;;;-7.30;45.40;;;-7.73;87.48;99482.72;5033945;28;120348;-80
2021/12/09 09:17:05;;;;;;;23.27;9.68;;;-7.50;39.90;;;-7.40;88.24;99482.94;5027673;28;129210;-80
2021/12/09 09:19:36;;;;;;;20.50;9.25;;;-7.50;43.90;;;-7.17;87.06;99479.19;5037634;27;127553;-80
2021/12/09 09:22:09;;;;;;;24.23;10.65;;;-7.40;44.10;;;-6.90;87.03;99477.47;5022034;28;118411;-80
2021/12/09 09:24:39;;;;;;;23.45;11.80;;;-7.30;44.60;;;-6.66;85.39;99476.09;5024447;28;119404;-79
2021/12/09 09:27:08;;;;;;;23.58;11.43;;;-7.10;42.20;;;-6.31;84.54;99470.66;5022594;28;130076;-79
2021/12/09 09:29:40;;;;;;;18.90;10.52;;;-6.90;43.50;;;-6.57;84.67;99477.56;5020542;28;128907;-79
2021/12/09 09:32:11;;;;;;;25.35;10.68;;;-6.90;39.50;;;-6.41;84.06;99470.28;5019747;28;119833;-79
2021/12/09 09:34:41;;;;;;;24.02;12.10;;;-6.90;39.30;;;-6.28;84.59;99474.75;5014210;28;120672;-81
2021/12/09 09:37:15;;;;;;;26.55;11.55;;;-6.90;40.80;;;-6.23;84.06;99473.13;5022232;28;129928;-81
2021/12/09 09:39:44;;;;;;;24.52;11.80;;;-6.70;40.00;;;-6.02;84.06;99463.38;5008787;28;129973;-81
2021/12/09 09:42:34;;;;;;;26.90;12.90;;;-6.60;41.30;;;-6.31;84.92;99470.66;5019171;28;119975;-81
2021/12/09 09:45:02;;;;;;;22.77;11.90;;;-6.70;39.70;;;-6.21;84.84;99457.88;5017057;28;118900;-80
2021/12/09 09:47:32;;;;;;;22.00;10.77;;;-6.70;40.40;;;-6.32;85.31;99466.41;4996165;28;128974;-80
2021/12/09 09:50:04;;;;;;;22.77;12.10;;;-6.70;41.20;;;-5.98;84.88;99454.03;4990061;28;128939;-80
2021/12/09 09:52:33;;;;;;;22.40;11.43;;;-6.60;43.10;;;-6.28;85.53;99441.22;5010424;28;119369;-80
2021/12/09 09:55:03;;;;;;;22.33;10.63;;;-6.50;40.30;;;-6.10;85.66;99440.63;5010427;28;119413;-80
2021/12/09 09:57:37;;;;;;;30.23;16.40;;;-6.50;43.90;;;-6.38;86.40;99459.31;5020023;28;129688;-81
2021/12/09 10:00:10;;;;;;;27.27;15.98;;;-6.50;41.70;;;-6.26;86.51;99455.03;5017958;28;130328;-78
2021/12/09 10:02:39;;;;;;;26.40;13.23;;;-6.50;44.10;;;-5.94;86.54;99449.91;5005773;28;119994;-79
2021/12/09 10:05:11;;;;;;;28.30;13.90;;;-6.40;45.50;;;-5.56;84.73;99451.06;5020071;28;121410;-78
2021/12/09 10:07:40;;;;;;;25.95;12.88;;;-6.20;45.60;;;-5.41;83.74;99454.28;5003159;28;129700;-77
2021/12/09 10:10:15;;;;;;;29.48;13.48;;;-6.00;43.00;;;-5.33;83.50;99461.19;5018067;28;129697;-79
2021/12/09 10:13:01;;;;;;;26.67;12.23;;;-6.00;41.60;;;-5.68;83.42;99458.84;5003595;28;118601;-78